createdAt,value
2023-05-11T00:01:46.566Z,0.28
2023-05-11T00:04:48.798Z,0.20
2023-05-11T00:07:51.233Z,0.13
2023-05-11T00:10:54.587Z,0.00
2023-05-11T00:13:56.851Z,0.20
2023-05-11T00:16:59.076Z,0.35
2023-05-11T00:20:01.361Z,0.30
2023-05-11T00:26:05.778Z,0.52
2023-05-11T00:29:08.200Z,0.00
2023-05-11T00:32:10.435Z,0.10
2023-05-11T00:38:15.793Z,0.30
2023-05-11T00:44:20.149Z,0.10
2023-05-11T00:47:23.127Z,0.10
2023-05-11T00:50:26.548Z,0.40
2023-05-11T00:56:30.766Z,0.20
2023-05-11T00:59:33.664Z,0.30
2023-05-11T01:02:36.969Z,0.10
2023-05-11T01:05:45.066Z,0.20
2023-05-11T01:08:57.354Z,0.13
2023-05-11T01:12:21.682Z,0.35
2023-05-11T01:15:36.863Z,0.25
2023-05-11T01:18:49.343Z,0.30
2023-05-11T01:21:52.041Z,0.30
2023-05-11T01:25:17.642Z,0.20
2023-05-11T01:31:35.901Z,0.10
2023-05-11T01:34:42.223Z,0.17
2023-05-11T01:37:50.643Z,0.10
2023-05-11T01:40:57.747Z,0.30
2023-05-11T01:44:05.501Z,0.32
2023-05-11T01:47:09.650Z,0.40
2023-05-11T01:50:15.944Z,0.30
2023-05-11T01:53:19.308Z,0.20
2023-05-11T01:56:23.432Z,1.08
2023-05-11T01:59:27.853Z,0.15
2023-05-11T02:02:32.008Z,0.10
2023-05-11T02:05:35.195Z,0.30
2023-05-11T02:08:41.537Z,0.08
2023-05-11T02:11:46.260Z,0.20
2023-05-11T02:14:52.878Z,0.10
2023-05-11T02:17:56.044Z,0.20
2023-05-11T02:21:00.285Z,0.43
2023-05-11T02:24:15.741Z,0.25
2023-05-11T02:30:57.064Z,0.55
2023-05-11T02:34:07.216Z,0.10
2023-05-11T02:37:21.032Z,0.30
2023-05-11T02:40:33.872Z,0.30
2023-05-11T02:43:39.615Z,0.20
2023-05-11T02:46:42.933Z,0.40
2023-05-11T02:49:49.806Z,0.40
2023-05-11T02:52:55.255Z,0.03
2023-05-11T02:55:58.286Z,0.20
2023-05-11T02:59:01.940Z,0.20
2023-05-11T03:02:04.231Z,0.22
2023-05-11T03:05:07.089Z,0.60
2023-05-11T03:08:10.018Z,0.20
2023-05-11T03:14:22.471Z,0.30
2023-05-11T03:17:27.917Z,0.65
2023-05-11T03:20:32.329Z,0.25
2023-05-11T03:23:36.694Z,0.40
2023-05-11T03:27:01.119Z,0.43
2023-05-11T03:30:08.143Z,0.10
2023-05-11T03:33:14.718Z,0.47
2023-05-11T03:36:19.782Z,0.32
2023-05-11T03:39:28.132Z,0.50
2023-05-11T03:42:33.403Z,0.10
2023-05-11T03:45:37.551Z,0.20
2023-05-11T03:48:43.956Z,0.32
2023-05-11T03:51:52.019Z,0.60
2023-05-11T03:54:55.003Z,0.30
2023-05-11T03:57:58.393Z,0.20
2023-05-11T04:01:01.860Z,0.30
2023-05-11T04:04:05.022Z,0.28
2023-05-11T04:07:08.598Z,0.10
2023-05-11T04:10:12.736Z,0.30
2023-05-11T04:13:16.049Z,0.25
2023-05-11T04:16:21.378Z,0.30
2023-05-11T04:19:23.905Z,0.50
2023-05-11T04:25:29.654Z,0.40
2023-05-11T04:28:32.474Z,0.40
2023-05-11T04:31:37.999Z,0.40
2023-05-11T04:34:44.009Z,0.57
2023-05-11T04:37:48.290Z,0.50
2023-05-11T04:40:52.099Z,0.63
2023-05-11T04:43:56.632Z,1.00
2023-05-11T04:47:00.894Z,0.77
2023-05-11T04:50:04.333Z,0.35
2023-05-11T04:53:11.119Z,0.40
2023-05-11T04:56:13.689Z,0.40
2023-05-11T04:59:15.858Z,0.40
2023-05-11T05:02:19.739Z,0.57
2023-05-11T05:05:24.020Z,0.30
2023-05-11T05:08:27.650Z,0.70
2023-05-11T05:11:29.906Z,0.75
2023-05-11T05:14:32.394Z,0.15
2023-05-11T05:17:34.580Z,0.45
2023-05-11T05:20:36.822Z,0.43
2023-05-11T05:23:38.884Z,0.80
2023-05-11T05:29:46.500Z,0.28
2023-05-11T05:32:49.122Z,0.40
2023-05-11T05:38:53.463Z,0.22
2023-05-11T05:45:08.759Z,1.00
2023-05-11T05:48:12.966Z,0.70
2023-05-11T05:51:15.160Z,0.47
2023-05-11T05:57:22.602Z,0.73
2023-05-11T06:00:25.362Z,0.63
2023-05-11T06:03:36.277Z,0.88
2023-05-11T06:06:39.133Z,0.35
2023-05-11T06:09:41.338Z,0.95
2023-05-11T06:12:52.075Z,1.02
2023-05-11T06:15:54.565Z,0.98
2023-05-11T06:19:03.215Z,1.05
2023-05-11T06:25:10.568Z,0.52
2023-05-11T06:28:16.624Z,0.57
2023-05-11T06:31:19.163Z,0.43
2023-05-11T06:34:23.379Z,0.40
2023-05-11T06:37:30.581Z,0.52
2023-05-11T06:40:33.633Z,0.68
2023-05-11T06:43:35.866Z,0.47
2023-05-11T06:46:49.427Z,1.00
2023-05-11T06:49:51.479Z,0.50
2023-05-11T06:52:54.519Z,0.57
2023-05-11T06:55:56.877Z,0.35
2023-05-11T06:58:59.435Z,0.65
2023-05-11T07:02:02.312Z,0.70
2023-05-11T07:05:06.834Z,1.20
2023-05-11T07:08:10.173Z,1.08
2023-05-11T07:11:12.529Z,0.90
2023-05-11T07:14:14.879Z,0.93
2023-05-11T07:17:17.125Z,0.75
2023-05-11T07:20:21.813Z,1.23
2023-05-11T07:23:26.100Z,0.68
2023-05-11T07:26:28.281Z,1.00
2023-05-11T07:29:30.462Z,0.60
2023-05-11T07:32:32.831Z,1.35
2023-05-11T07:35:34.970Z,1.40
2023-05-11T07:38:37.168Z,0.68
2023-05-11T07:41:40.256Z,1.05
2023-05-11T07:44:44.278Z,0.70
2023-05-11T07:47:46.711Z,1.10
2023-05-11T07:50:49.346Z,0.63
2023-05-11T07:53:51.537Z,0.93
2023-05-11T07:56:53.600Z,1.13
2023-05-11T07:59:55.634Z,1.15
2023-05-11T08:02:57.953Z,0.93
2023-05-11T08:06:00.106Z,1.08
2023-05-11T08:12:04.261Z,1.10
2023-05-11T08:15:06.710Z,1.00
2023-05-11T08:18:08.916Z,0.73
2023-05-11T08:21:11.149Z,0.88
2023-05-11T08:27:17.885Z,0.70
2023-05-11T08:30:20.189Z,1.08
2023-05-11T08:33:36.538Z,0.80
2023-05-11T08:36:39.850Z,0.75
2023-05-11T08:39:46.522Z,0.70
2023-05-11T08:42:54.525Z,0.90
2023-05-11T08:46:03.109Z,0.77
2023-05-11T08:49:05.436Z,0.82
2023-05-11T08:52:08.277Z,1.45
2023-05-11T08:55:11.256Z,0.93
2023-05-11T08:58:13.659Z,1.02
2023-05-11T09:01:17.395Z,0.77
2023-05-11T09:04:22.672Z,0.73
2023-05-11T09:07:26.937Z,0.90
2023-05-11T09:10:29.219Z,1.10
2023-05-11T09:13:32.053Z,0.60
2023-05-11T09:16:37.558Z,1.52
2023-05-11T09:20:01.865Z,1.05
2023-05-11T09:23:04.003Z,1.08
2023-05-11T09:26:23.114Z,1.10
2023-05-11T09:29:30.397Z,1.42
2023-05-11T09:32:50.794Z,0.55
2023-05-11T09:35:53.891Z,1.20
2023-05-11T09:39:02.998Z,1.10
2023-05-11T09:42:21.733Z,1.33
2023-05-11T09:45:48.059Z,1.00
2023-05-11T09:49:00.164Z,2.00
2023-05-11T09:52:02.294Z,1.13
2023-05-11T09:58:12.574Z,0.55
2023-05-11T10:04:23.520Z,1.25
2023-05-11T10:07:34.439Z,0.63
2023-05-11T10:10:36.786Z,1.15
2023-05-11T10:13:40.345Z,0.65
2023-05-11T10:16:44.014Z,0.90
2023-05-11T10:19:50.315Z,0.82
2023-05-11T10:22:54.368Z,1.00
2023-05-11T10:25:58.174Z,1.65
2023-05-11T10:29:01.152Z,1.52
2023-05-11T10:32:04.429Z,1.02
2023-05-11T10:35:09.724Z,0.60
2023-05-11T10:38:13.102Z,0.75
2023-05-11T10:41:40.291Z,0.80
2023-05-11T10:44:51.595Z,0.70
2023-05-11T10:48:32.911Z,0.70
2023-05-11T11:04:14.732Z,0.80
2023-05-11T11:07:17.853Z,1.02
2023-05-11T11:10:38.203Z,1.20
2023-05-11T11:14:02.022Z,0.73
2023-05-11T11:17:24.366Z,1.02
2023-05-11T11:20:46.173Z,0.80
2023-05-11T11:23:49.878Z,1.08
2023-05-11T11:26:51.916Z,0.93
2023-05-11T11:30:18.871Z,1.52
2023-05-11T11:33:20.900Z,0.57
2023-05-11T11:36:57.043Z,1.00
2023-05-11T11:40:13.063Z,0.50
2023-05-11T11:43:20.899Z,0.70
2023-05-11T11:46:30.278Z,1.33
2023-05-11T11:49:32.344Z,0.85
2023-05-11T11:52:34.764Z,0.43
2023-05-11T11:55:57.129Z,0.93
2023-05-11T11:59:00.846Z,0.68
2023-05-11T12:02:04.023Z,1.65
2023-05-11T12:05:19.127Z,1.63
2023-05-11T12:08:25.018Z,1.05
2023-05-11T12:11:29.983Z,0.80
2023-05-11T12:14:32.634Z,1.10
2023-05-11T12:17:38.923Z,0.80
2023-05-11T12:20:41.820Z,0.50
2023-05-11T12:23:55.337Z,0.80
2023-05-11T12:26:57.478Z,1.23
2023-05-11T12:33:01.984Z,0.85
2023-05-11T12:36:04.180Z,0.75
2023-05-11T12:39:06.127Z,0.65
2023-05-11T12:42:08.080Z,1.33
2023-05-11T12:45:12.328Z,0.50
2023-05-11T12:48:15.456Z,0.63
2023-05-11T12:51:45.444Z,0.93
2023-05-11T12:54:50.051Z,0.85
2023-05-11T12:57:52.075Z,0.50
2023-05-11T13:00:56.428Z,0.68
2023-05-11T13:03:58.553Z,0.95
2023-05-11T13:07:00.667Z,0.63
2023-05-11T13:13:04.608Z,0.60
2023-05-11T13:16:06.928Z,0.55
2023-05-11T13:19:09.071Z,0.77
2023-05-11T13:22:11.829Z,0.60
2023-05-11T13:25:20.620Z,0.68
2023-05-11T13:28:24.004Z,0.60
2023-05-11T13:31:26.228Z,0.32
2023-05-11T13:34:28.386Z,0.50
2023-05-11T13:37:30.750Z,0.38
2023-05-11T13:40:32.819Z,0.38
2023-05-11T13:43:34.849Z,0.80
2023-05-11T13:49:39.165Z,0.70
2023-05-11T13:52:41.071Z,0.70
2023-05-11T13:55:43.375Z,1.80
2023-05-11T13:58:45.535Z,0.50
2023-05-11T14:01:47.666Z,0.60
2023-05-11T14:04:50.299Z,0.40
2023-05-11T14:07:52.578Z,1.05
2023-05-11T14:10:54.515Z,0.50
2023-05-11T14:16:58.865Z,0.60
2023-05-11T14:20:01.503Z,0.88
2023-05-11T14:23:03.845Z,0.73
2023-05-11T14:26:05.908Z,0.60
2023-05-11T14:32:10.414Z,0.70
2023-05-11T14:35:12.440Z,0.63
2023-05-11T14:38:15.097Z,0.40
2023-05-11T14:41:17.059Z,0.52
2023-05-11T14:44:19.070Z,0.68
2023-05-11T14:47:21.566Z,1.13
2023-05-11T14:50:23.660Z,0.52
2023-05-11T14:56:27.934Z,0.45
2023-05-11T14:59:30.044Z,0.70
2023-05-11T15:02:32.051Z,1.02
2023-05-11T15:08:36.386Z,0.85
2023-05-11T15:11:38.401Z,0.65
2023-05-11T15:14:40.336Z,0.60
2023-05-11T15:17:42.293Z,0.70
2023-05-11T15:23:46.546Z,0.57
2023-05-11T15:29:50.828Z,0.70
2023-05-11T15:32:52.820Z,0.50
2023-05-11T15:38:56.938Z,0.60
2023-05-11T15:42:01.413Z,0.45
2023-05-11T15:45:03.462Z,0.60
2023-05-11T15:48:05.814Z,0.88
2023-05-11T15:51:07.789Z,0.25
2023-05-11T15:54:09.833Z,0.25
2023-05-11T15:57:11.767Z,0.52
2023-05-11T16:00:14.174Z,0.60
2023-05-11T16:03:16.466Z,0.60
2023-05-11T16:06:18.633Z,0.70
2023-05-11T16:09:20.729Z,0.50
2023-05-11T16:15:24.892Z,0.85
2023-05-11T16:21:28.965Z,0.32
2023-05-11T16:27:36.322Z,0.85
2023-05-11T16:30:38.296Z,0.70
2023-05-11T16:33:40.357Z,0.70
2023-05-11T16:39:44.339Z,0.50
2023-05-11T16:42:46.481Z,0.82
2023-05-11T16:45:48.454Z,0.40
2023-05-11T16:48:50.439Z,0.90
2023-05-11T16:51:52.506Z,0.93
2023-05-11T16:57:58.804Z,0.35
2023-05-11T17:01:00.934Z,0.68
2023-05-11T17:04:03.247Z,0.50
2023-05-11T17:07:05.510Z,0.50
2023-05-11T17:10:08.069Z,0.77
2023-05-11T17:13:10.113Z,0.50
2023-05-11T17:16:13.666Z,0.65
2023-05-11T17:19:15.787Z,0.70
2023-05-11T17:25:19.803Z,0.70
2023-05-11T17:28:21.933Z,0.90
2023-05-11T17:34:28.600Z,0.68
2023-05-11T17:37:32.451Z,0.82
2023-05-11T17:40:34.774Z,1.05
2023-05-11T17:43:36.880Z,0.50
2023-05-11T17:49:40.927Z,1.08
2023-05-11T17:52:42.959Z,0.20
2023-05-11T17:55:44.937Z,0.32
2023-05-11T17:58:46.896Z,0.40
2023-05-11T18:01:52.421Z,0.30
2023-05-11T18:04:54.534Z,0.25
2023-05-11T18:07:56.799Z,0.60
2023-05-11T18:10:59.502Z,0.70
2023-05-11T18:14:04.018Z,0.30
2023-05-11T18:17:06.148Z,0.40
2023-05-11T18:23:10.955Z,0.40
2023-05-11T18:29:16.570Z,0.30
2023-05-11T18:32:20.097Z,0.85
2023-05-11T18:38:24.248Z,0.82
2023-05-11T18:41:32.193Z,1.02
2023-05-11T18:44:34.625Z,0.60
2023-05-11T18:47:36.897Z,0.80
2023-05-11T18:53:41.054Z,0.40
2023-05-11T18:56:43.141Z,0.50
2023-05-11T18:59:45.229Z,0.90
2023-05-11T19:02:47.228Z,1.17
2023-05-11T19:05:49.404Z,1.05
2023-05-11T19:11:55.989Z,0.50
2023-05-11T19:14:57.968Z,0.95
2023-05-11T19:18:00.285Z,1.20
2023-05-11T19:21:02.828Z,1.20
2023-05-11T19:24:05.828Z,1.45
2023-05-11T19:27:08.251Z,1.05
2023-05-11T19:30:10.579Z,0.75
2023-05-11T19:36:15.080Z,1.08
2023-05-11T19:39:17.713Z,0.90
2023-05-11T19:42:25.871Z,0.68
2023-05-11T19:45:42.258Z,1.15
2023-05-11T19:48:44.799Z,0.70
2023-05-11T19:51:47.058Z,1.10
2023-05-11T19:54:49.557Z,0.93
2023-05-11T19:57:51.920Z,1.10
2023-05-11T20:00:54.209Z,0.55
2023-05-11T20:06:58.989Z,0.60
2023-05-11T20:13:03.924Z,1.00
2023-05-11T20:16:06.543Z,1.00
2023-05-11T20:19:09.529Z,1.15
2023-05-11T20:22:12.298Z,0.73
2023-05-11T20:25:18.694Z,1.00
2023-05-11T20:28:22.852Z,1.15
2023-05-11T20:31:26.611Z,0.93
2023-05-11T20:34:28.956Z,0.88
2023-05-11T20:37:31.966Z,1.60
2023-05-11T20:40:34.216Z,0.93
2023-05-11T20:43:36.398Z,1.35
2023-05-11T20:46:38.650Z,1.05
2023-05-11T20:52:43.486Z,1.25
2023-05-11T20:55:46.213Z,1.13
2023-05-11T20:58:50.413Z,1.33
2023-05-11T21:01:53.376Z,1.30
2023-05-11T21:04:55.776Z,0.90
2023-05-11T21:07:58.026Z,1.38
2023-05-11T21:11:00.359Z,1.20
2023-05-11T21:17:04.862Z,1.27
2023-05-11T21:20:08.821Z,1.27
2023-05-11T21:23:11.073Z,1.13
2023-05-11T21:26:13.813Z,1.10
2023-05-11T21:29:16.070Z,1.88
2023-05-11T21:32:18.685Z,1.00
2023-05-11T21:35:20.838Z,1.58
2023-05-11T21:38:23.311Z,0.80
2023-05-11T21:41:25.754Z,1.30
2023-05-11T21:44:30.310Z,1.42
2023-05-11T21:47:35.058Z,1.10
2023-05-11T21:50:39.945Z,1.65
2023-05-11T21:53:48.389Z,1.20
2023-05-11T21:56:51.640Z,2.03
2023-05-11T21:59:53.798Z,2.38
2023-05-11T22:02:56.542Z,1.77
2023-05-11T22:05:58.836Z,2.13
2023-05-11T22:09:00.990Z,1.63
2023-05-11T22:12:03.126Z,1.20
2023-05-11T22:15:06.265Z,1.67
2023-05-11T22:18:08.472Z,1.83
2023-05-11T22:21:10.829Z,1.92
2023-05-11T22:27:15.338Z,2.53
2023-05-11T22:30:18.024Z,2.00
2023-05-11T22:33:20.235Z,1.63
2023-05-11T22:36:22.543Z,2.05
2023-05-11T22:42:27.366Z,1.80
2023-05-11T22:45:36.328Z,2.92
2023-05-11T22:48:38.930Z,1.70
2023-05-11T22:54:43.769Z,2.17
2023-05-11T23:00:48.820Z,2.20
2023-05-11T23:03:50.988Z,2.65
2023-05-11T23:06:53.110Z,2.28
2023-05-11T23:09:55.133Z,2.60
2023-05-11T23:12:59.734Z,2.65
2023-05-11T23:16:01.895Z,2.47
2023-05-11T23:19:03.943Z,2.42
2023-05-11T23:22:06.231Z,2.60
2023-05-11T23:25:08.894Z,2.35
2023-05-11T23:28:10.966Z,2.00
2023-05-11T23:31:12.973Z,2.00
2023-05-11T23:34:15.464Z,2.60
2023-05-11T23:37:17.793Z,1.65
2023-05-11T23:43:25.057Z,2.80
2023-05-11T23:46:27.109Z,2.85
2023-05-11T23:49:29.428Z,2.42
2023-05-11T23:52:33.169Z,3.50
2023-05-11T23:55:35.752Z,2.55
2023-05-11T23:58:38.327Z,2.03
